createdAt,value
2023-02-17T00:05:16.174Z,202
2023-02-17T00:10:16.213Z,202
2023-02-17T00:15:16.181Z,202
2023-02-17T00:20:16.204Z,202
2023-02-17T00:35:16.812Z,202
2023-02-17T00:40:16.409Z,202
2023-02-17T00:45:16.291Z,202
2023-02-17T00:55:16.264Z,202
2023-02-17T01:00:16.422Z,202
2023-02-17T01:05:16.345Z,22
2023-02-17T01:10:16.409Z,22
2023-02-17T01:15:16.415Z,22
2023-02-17T01:20:16.574Z,22
2023-02-17T01:25:16.408Z,45
2023-02-17T01:30:16.425Z,68
2023-02-17T01:35:16.362Z,68
2023-02-17T01:40:16.388Z,68
2023-02-17T01:45:16.674Z,68
2023-02-17T01:50:16.382Z,180
2023-02-17T01:55:16.310Z,180
2023-02-17T02:10:16.425Z,180
2023-02-17T02:15:16.415Z,180
2023-02-17T02:25:16.501Z,180
2023-02-17T02:30:16.606Z,180
2023-02-17T02:35:16.454Z,180
2023-02-17T02:40:16.574Z,158
2023-02-17T02:45:16.590Z,158
2023-02-17T02:50:16.605Z,112
2023-02-17T03:10:16.579Z,180
2023-02-17T03:15:16.611Z,180
2023-02-17T03:20:16.580Z,180
2023-02-17T03:30:16.742Z,180
2023-02-17T03:35:16.592Z,180
2023-02-17T03:40:16.706Z,180
2023-02-17T03:45:16.582Z,180
2023-02-17T03:50:16.593Z,180
2023-02-17T03:55:16.601Z,90
2023-02-17T04:00:16.918Z,90
2023-02-17T04:05:16.680Z,90
2023-02-17T04:10:16.700Z,90
2023-02-17T04:15:17.392Z,90
2023-02-17T04:20:16.930Z,112
2023-02-17T04:25:16.807Z,112
2023-02-17T04:30:16.882Z,112
2023-02-17T04:35:16.910Z,112
2023-02-17T04:40:16.843Z,112
2023-02-17T04:45:16.842Z,112
2023-02-17T04:50:16.731Z,112
2023-02-17T04:55:17.039Z,112
2023-02-17T05:00:15.791Z,112
2023-02-17T05:05:15.952Z,135
2023-02-17T05:10:15.986Z,180
2023-02-17T05:15:15.821Z,180
2023-02-17T05:20:15.790Z,112
2023-02-17T05:25:15.828Z,158
2023-02-17T05:30:15.816Z,158
2023-02-17T05:35:15.962Z,180
2023-02-17T05:40:15.826Z,202
2023-02-17T05:45:15.849Z,202
2023-02-17T05:50:15.877Z,202
2023-02-17T05:55:15.910Z,202
2023-02-17T06:00:15.882Z,202
2023-02-17T06:05:16.055Z,180
2023-02-17T06:10:15.899Z,180
2023-02-17T06:15:15.914Z,135
2023-02-17T06:20:15.941Z,158
2023-02-17T06:25:15.958Z,180
2023-02-17T06:30:16.059Z,202
2023-02-17T06:35:15.928Z,202
2023-02-17T06:40:16.040Z,202
2023-02-17T06:45:15.928Z,202
2023-02-17T06:50:16.016Z,202
2023-02-17T06:55:16.059Z,158
2023-02-17T07:00:16.039Z,158
2023-02-17T07:05:15.980Z,158
2023-02-17T07:10:16.137Z,225
2023-02-17T07:15:16.104Z,225
2023-02-17T07:20:16.173Z,202
2023-02-17T07:25:16.186Z,180
2023-02-17T07:30:16.146Z,180
2023-02-17T07:35:16.093Z,158
2023-02-17T07:40:16.184Z,158
2023-02-17T07:45:16.094Z,158
2023-02-17T07:50:16.095Z,180
2023-02-17T07:55:16.256Z,180
2023-02-17T08:05:16.160Z,180
2023-02-17T08:10:16.145Z,180
2023-02-17T08:15:16.201Z,180
2023-02-17T08:20:16.168Z,248
2023-02-17T08:25:16.351Z,248
2023-02-17T08:30:16.488Z,248
2023-02-17T08:35:16.207Z,180
2023-02-17T08:40:16.348Z,180
2023-02-17T08:45:16.344Z,202
2023-02-17T08:50:16.270Z,202
2023-02-17T08:55:16.365Z,202
2023-02-17T09:00:16.315Z,202
2023-02-17T09:05:16.331Z,202
2023-02-17T09:10:16.261Z,202
2023-02-17T09:15:16.332Z,202
2023-02-17T09:30:16.386Z,202
2023-02-17T09:35:16.374Z,270
2023-02-17T09:40:16.362Z,292
2023-02-17T09:45:16.461Z,338
2023-02-17T09:50:16.610Z,338
2023-02-17T09:55:16.279Z,338
2023-02-17T10:00:16.435Z,338
2023-02-17T10:05:16.779Z,248
2023-02-17T10:10:16.391Z,248
2023-02-17T10:15:17.791Z,248
2023-02-17T10:20:16.429Z,202
2023-02-17T10:25:16.479Z,202
2023-02-17T10:30:16.536Z,202
2023-02-17T10:35:16.606Z,180
2023-02-17T10:40:16.464Z,202
2023-02-17T10:45:16.439Z,202
2023-02-17T10:50:16.492Z,202
2023-02-17T10:55:22.750Z,180
2023-02-17T11:00:16.666Z,180
2023-02-17T11:05:16.486Z,180
2023-02-17T11:10:16.661Z,202
2023-02-17T11:15:16.540Z,180
2023-02-17T11:20:16.600Z,180
2023-02-17T11:25:16.739Z,180
2023-02-17T11:30:16.827Z,180
2023-02-17T11:35:17.464Z,180
2023-02-17T11:40:16.603Z,180
2023-02-17T11:45:16.624Z,180
2023-02-17T11:50:16.647Z,180
2023-02-17T11:55:16.563Z,202
2023-02-17T12:00:16.637Z,202
2023-02-17T12:05:16.839Z,202
2023-02-17T12:15:16.630Z,202
2023-02-17T12:20:16.833Z,0
2023-02-17T12:25:16.816Z,338
2023-02-17T12:30:16.916Z,0
2023-02-17T12:35:16.719Z,0
2023-02-17T12:40:16.809Z,0
2023-02-17T12:45:16.667Z,0
2023-02-17T12:50:16.696Z,0
2023-02-17T12:55:17.045Z,0
2023-02-17T13:00:16.774Z,0
2023-02-17T13:05:16.838Z,0
2023-02-17T13:10:16.898Z,202
2023-02-17T13:15:16.853Z,202
2023-02-17T13:20:16.841Z,225
2023-02-17T13:25:16.837Z,225
2023-02-17T13:30:16.895Z,202
2023-02-17T13:35:16.774Z,202
2023-02-17T13:40:16.929Z,202
2023-02-17T13:45:16.837Z,202
2023-02-17T13:50:16.940Z,202
2023-02-17T13:55:16.737Z,225
2023-02-17T14:00:16.908Z,225
2023-02-17T14:05:16.939Z,225
2023-02-17T14:10:16.866Z,225
2023-02-17T14:15:17.008Z,225
2023-02-17T14:20:16.997Z,225
2023-02-17T14:25:16.913Z,202
2023-02-17T14:30:17.042Z,202
2023-02-17T14:35:16.884Z,202
2023-02-17T14:40:16.971Z,202
2023-02-17T14:45:16.947Z,202
2023-02-17T14:50:16.947Z,225
2023-02-17T14:55:16.950Z,225
2023-02-17T15:00:17.050Z,202
2023-02-17T15:05:17.020Z,202
2023-02-17T15:10:17.099Z,202
2023-02-17T15:15:17.311Z,202
2023-02-17T15:20:17.011Z,202
2023-02-17T15:25:17.028Z,202
2023-02-17T15:30:17.246Z,202
2023-02-17T15:35:17.180Z,202
2023-02-17T15:40:17.091Z,202
2023-02-17T15:45:17.078Z,202
2023-02-17T15:50:18.619Z,202
2023-02-17T15:55:17.082Z,202
2023-02-17T16:00:17.130Z,202
2023-02-17T16:05:17.207Z,202
2023-02-17T16:10:17.309Z,202
2023-02-17T16:15:17.163Z,202
2023-02-17T16:20:17.191Z,225
2023-02-17T16:25:17.272Z,202
2023-02-17T16:30:17.211Z,202
2023-02-17T16:35:17.369Z,225
2023-02-17T16:40:17.216Z,225
2023-02-17T16:45:17.315Z,225
2023-02-17T16:50:17.284Z,202
2023-02-17T16:55:17.339Z,202
2023-02-17T17:00:17.342Z,225
2023-02-17T17:05:17.326Z,202
2023-02-17T17:10:17.518Z,225
2023-02-17T17:15:17.234Z,202
2023-02-17T17:20:17.316Z,202
2023-02-17T17:25:17.251Z,202
2023-02-17T17:30:17.335Z,202
2023-02-17T17:35:17.358Z,202
2023-02-17T17:40:17.407Z,202
2023-02-17T17:45:17.453Z,225
2023-02-17T17:50:17.366Z,225
2023-02-17T17:55:17.341Z,225
2023-02-17T18:00:17.370Z,225
2023-02-17T18:05:17.333Z,225
2023-02-17T18:10:17.474Z,202
2023-02-17T18:15:17.522Z,202
2023-02-17T18:20:15.637Z,202
2023-02-17T18:25:15.541Z,225
2023-02-17T18:30:15.418Z,225
2023-02-17T18:35:15.454Z,225
2023-02-17T18:40:15.470Z,225
2023-02-17T18:45:15.437Z,225
2023-02-17T18:50:15.425Z,225
2023-02-17T18:55:15.542Z,225
2023-02-17T19:00:15.395Z,225
2023-02-17T19:05:15.491Z,225
2023-02-17T19:10:15.512Z,248
2023-02-17T19:15:15.662Z,292
2023-02-17T19:20:15.679Z,338
2023-02-17T19:25:15.527Z,0
2023-02-17T19:30:15.596Z,0
2023-02-17T19:35:15.521Z,22
2023-02-17T19:40:15.629Z,0
2023-02-17T19:45:15.689Z,22
2023-02-17T19:50:17.617Z,22
2023-02-17T19:55:15.555Z,22
2023-02-17T20:00:15.622Z,0
2023-02-17T20:05:15.609Z,0
2023-02-17T20:10:15.673Z,0
2023-02-17T20:15:15.620Z,0
2023-02-17T20:20:15.740Z,338
2023-02-17T20:25:15.795Z,338
2023-02-17T20:30:15.705Z,338
2023-02-17T20:35:15.677Z,338
2023-02-17T20:40:15.718Z,338
2023-02-17T20:45:15.640Z,338
2023-02-17T20:50:15.755Z,338
2023-02-17T20:55:16.191Z,338
2023-02-17T21:00:15.782Z,0
2023-02-17T21:05:16.048Z,338
2023-02-17T21:10:15.772Z,338
2023-02-17T21:15:15.789Z,338
2023-02-17T21:20:15.792Z,0
2023-02-17T21:25:15.984Z,338
2023-02-17T21:30:15.848Z,338
2023-02-17T21:35:15.923Z,338
2023-02-17T21:40:15.836Z,338
2023-02-17T21:45:15.790Z,0
2023-02-17T21:50:15.765Z,0
2023-02-17T21:55:15.728Z,0
2023-02-17T22:00:16.234Z,0
2023-02-17T22:05:15.987Z,338
2023-02-17T22:10:15.866Z,338
2023-02-17T22:15:16.091Z,315
2023-02-17T22:20:15.858Z,338
2023-02-17T22:25:15.829Z,315
2023-02-17T22:30:16.079Z,338
2023-02-17T22:35:16.011Z,315
2023-02-17T22:40:16.127Z,315
2023-02-17T22:45:15.935Z,315
2023-02-17T22:50:15.947Z,315
2023-02-17T22:55:15.919Z,338
2023-02-17T23:00:15.970Z,338
2023-02-17T23:05:16.003Z,338
2023-02-17T23:10:16.024Z,338
2023-02-17T23:15:15.956Z,338
2023-02-17T23:20:16.015Z,338
2023-02-17T23:25:15.965Z,315
2023-02-17T23:30:16.116Z,315
2023-02-17T23:35:16.012Z,315
2023-02-17T23:40:16.182Z,315
2023-02-17T23:45:16.061Z,315
2023-02-17T23:50:17.064Z,315
2023-02-17T23:55:16.014Z,315
